sensor_id;sensor_type;location;lat;lon;timestamp;P1;durP1;ratioP1;P2;durP2;ratioP2
51184;SDS011;37248;59.350;18.050;2023-03-07T00:01:56;7.13;;;3.03;;
51184;SDS011;37248;59.350;18.050;2023-03-07T00:04:21;8.90;;;3.10;;
51184;SDS011;37248;59.350;18.050;2023-03-07T00:06:46;6.70;;;2.83;;
51184;SDS011;37248;59.350;18.050;2023-03-07T00:09:12;5.47;;;2.50;;
51184;SDS011;37248;59.350;18.050;2023-03-07T00:11:37;6.07;;;2.53;;
51184;SDS011;37248;59.350;18.050;2023-03-07T00:14:05;7.47;;;2.77;;
51184;SDS011;37248;59.350;18.050;2023-03-07T00:16:30;8.05;;;2.60;;
51184;SDS011;37248;59.350;18.050;2023-03-07T00:18:56;7.17;;;2.53;;
51184;SDS011;37248;59.350;18.050;2023-03-07T00:21:21;7.30;;;2.23;;
51184;SDS011;37248;59.350;18.050;2023-03-07T00:23:47;8.07;;;2.80;;
51184;SDS011;37248;59.350;18.050;2023-03-07T00:26:16;5.93;;;2.50;;
51184;SDS011;37248;59.350;18.050;2023-03-07T00:28:42;6.75;;;2.35;;
51184;SDS011;37248;59.350;18.050;2023-03-07T00:31:08;4.97;;;2.40;;
51184;SDS011;37248;59.350;18.050;2023-03-07T00:33:34;5.93;;;2.20;;
51184;SDS011;37248;59.350;18.050;2023-03-07T00:36:00;6.07;;;2.30;;
51184;SDS011;37248;59.350;18.050;2023-03-07T00:38:26;6.20;;;2.30;;
51184;SDS011;37248;59.350;18.050;2023-03-07T00:43:23;5.00;;;2.20;;
51184;SDS011;37248;59.350;18.050;2023-03-07T00:45:49;5.40;;;2.20;;
51184;SDS011;37248;59.350;18.050;2023-03-07T00:48:14;6.03;;;2.13;;
51184;SDS011;37248;59.350;18.050;2023-03-07T00:50:39;4.87;;;1.90;;
51184;SDS011;37248;59.350;18.050;2023-03-07T00:53:04;3.33;;;1.90;;
51184;SDS011;37248;59.350;18.050;2023-03-07T00:55:30;6.23;;;2.03;;
51184;SDS011;37248;59.350;18.050;2023-03-07T00:57:55;6.50;;;1.77;;
51184;SDS011;37248;59.350;18.050;2023-03-07T01:00:20;5.40;;;2.23;;
51184;SDS011;37248;59.350;18.050;2023-03-07T01:02:45;5.63;;;2.03;;
51184;SDS011;37248;59.350;18.050;2023-03-07T01:05:11;4.20;;;1.80;;
51184;SDS011;37248;59.350;18.050;2023-03-07T01:07:36;4.43;;;2.07;;
51184;SDS011;37248;59.350;18.050;2023-03-07T01:10:01;4.90;;;1.80;;
51184;SDS011;37248;59.350;18.050;2023-03-07T01:12:26;6.03;;;2.03;;
51184;SDS011;37248;59.350;18.050;2023-03-07T01:14:52;3.80;;;1.73;;
51184;SDS011;37248;59.350;18.050;2023-03-07T01:17:17;5.50;;;1.73;;
51184;SDS011;37248;59.350;18.050;2023-03-07T01:19:42;3.87;;;1.77;;
51184;SDS011;37248;59.350;18.050;2023-03-07T01:22:08;3.70;;;1.60;;
51184;SDS011;37248;59.350;18.050;2023-03-07T01:24:33;4.90;;;2.13;;
51184;SDS011;37248;59.350;18.050;2023-03-07T01:26:58;5.07;;;1.73;;
51184;SDS011;37248;59.350;18.050;2023-03-07T01:29:23;4.50;;;1.63;;
51184;SDS011;37248;59.350;18.050;2023-03-07T01:31:49;3.10;;;1.50;;
51184;SDS011;37248;59.350;18.050;2023-03-07T01:34:14;3.20;;;1.70;;
51184;SDS011;37248;59.350;18.050;2023-03-07T01:36:39;3.73;;;1.70;;
51184;SDS011;37248;59.350;18.050;2023-03-07T01:39:09;4.77;;;1.50;;
51184;SDS011;37248;59.350;18.050;2023-03-07T01:41:37;3.22;;;1.50;;
51184;SDS011;37248;59.350;18.050;2023-03-07T01:44:03;4.13;;;1.53;;
51184;SDS011;37248;59.350;18.050;2023-03-07T01:46:36;2.25;;;1.30;;
51184;SDS011;37248;59.350;18.050;2023-03-07T01:49:04;2.50;;;1.40;;
51184;SDS011;37248;59.350;18.050;2023-03-07T01:51:33;2.95;;;1.27;;
51184;SDS011;37248;59.350;18.050;2023-03-07T01:54:00;5.30;;;1.60;;
51184;SDS011;37248;59.350;18.050;2023-03-07T01:56:26;2.77;;;1.40;;
51184;SDS011;37248;59.350;18.050;2023-03-07T01:58:52;2.40;;;1.40;;
51184;SDS011;37248;59.350;18.050;2023-03-07T02:01:17;3.80;;;1.70;;
51184;SDS011;37248;59.350;18.050;2023-03-07T02:03:50;3.60;;;1.50;;
51184;SDS011;37248;59.350;18.050;2023-03-07T02:06:15;4.70;;;1.50;;
51184;SDS011;37248;59.350;18.050;2023-03-07T02:08:41;3.23;;;1.40;;
51184;SDS011;37248;59.350;18.050;2023-03-07T02:11:07;5.30;;;1.33;;
51184;SDS011;37248;59.350;18.050;2023-03-07T02:13:33;2.40;;;1.20;;
51184;SDS011;37248;59.350;18.050;2023-03-07T02:15:59;4.43;;;1.50;;
51184;SDS011;37248;59.350;18.050;2023-03-07T02:18:27;2.75;;;1.40;;
51184;SDS011;37248;59.350;18.050;2023-03-07T02:23:31;4.63;;;1.33;;
51184;SDS011;37248;59.350;18.050;2023-03-07T02:28:39;2.80;;;1.47;;
51184;SDS011;37248;59.350;18.050;2023-03-07T02:31:06;3.17;;;1.50;;
51184;SDS011;37248;59.350;18.050;2023-03-07T02:33:32;2.57;;;1.20;;
51184;SDS011;37248;59.350;18.050;2023-03-07T02:35:59;2.83;;;1.30;;
51184;SDS011;37248;59.350;18.050;2023-03-07T02:38:25;3.20;;;1.48;;
51184;SDS011;37248;59.350;18.050;2023-03-07T02:40:51;1.70;;;0.90;;
51184;SDS011;37248;59.350;18.050;2023-03-07T02:43:17;1.90;;;1.13;;
51184;SDS011;37248;59.350;18.050;2023-03-07T02:45:43;4.22;;;1.40;;
51184;SDS011;37248;59.350;18.050;2023-03-07T02:48:08;1.83;;;1.07;;
51184;SDS011;37248;59.350;18.050;2023-03-07T02:50:33;2.10;;;1.07;;
51184;SDS011;37248;59.350;18.050;2023-03-07T02:52:59;2.00;;;1.08;;
51184;SDS011;37248;59.350;18.050;2023-03-07T02:55:24;2.20;;;1.30;;
51184;SDS011;37248;59.350;18.050;2023-03-07T02:57:50;3.27;;;1.23;;
51184;SDS011;37248;59.350;18.050;2023-03-07T03:00:15;2.47;;;1.03;;
51184;SDS011;37248;59.350;18.050;2023-03-07T03:02:41;2.20;;;1.10;;
51184;SDS011;37248;59.350;18.050;2023-03-07T03:05:06;3.73;;;1.40;;
51184;SDS011;37248;59.350;18.050;2023-03-07T03:07:32;3.70;;;1.20;;
51184;SDS011;37248;59.350;18.050;2023-03-07T03:09:57;2.80;;;1.00;;
51184;SDS011;37248;59.350;18.050;2023-03-07T03:12:22;3.33;;;1.07;;
51184;SDS011;37248;59.350;18.050;2023-03-07T03:14:47;2.87;;;1.10;;
51184;SDS011;37248;59.350;18.050;2023-03-07T03:17:13;2.47;;;1.10;;
51184;SDS011;37248;59.350;18.050;2023-03-07T03:19:38;2.58;;;1.15;;
51184;SDS011;37248;59.350;18.050;2023-03-07T03:22:03;3.23;;;1.10;;
51184;SDS011;37248;59.350;18.050;2023-03-07T03:24:29;3.80;;;1.17;;
51184;SDS011;37248;59.350;18.050;2023-03-07T03:26:55;2.60;;;1.00;;
51184;SDS011;37248;59.350;18.050;2023-03-07T03:29:21;3.45;;;1.25;;
51184;SDS011;37248;59.350;18.050;2023-03-07T03:31:47;2.90;;;1.00;;
51184;SDS011;37248;59.350;18.050;2023-03-07T03:34:12;2.87;;;0.97;;
51184;SDS011;37248;59.350;18.050;2023-03-07T03:36:38;8.73;;;1.17;;
51184;SDS011;37248;59.350;18.050;2023-03-07T03:39:04;2.10;;;1.00;;
51184;SDS011;37248;59.350;18.050;2023-03-07T03:41:34;4.33;;;1.30;;
51184;SDS011;37248;59.350;18.050;2023-03-07T03:44:00;1.50;;;1.00;;
51184;SDS011;37248;59.350;18.050;2023-03-07T03:46:25;3.43;;;1.10;;
51184;SDS011;37248;59.350;18.050;2023-03-07T03:48:51;3.63;;;1.00;;
51184;SDS011;37248;59.350;18.050;2023-03-07T03:51:19;1.65;;;0.82;;
51184;SDS011;37248;59.350;18.050;2023-03-07T03:53:45;3.90;;;1.33;;
51184;SDS011;37248;59.350;18.050;2023-03-07T03:56:11;2.20;;;1.10;;
51184;SDS011;37248;59.350;18.050;2023-03-07T03:58:37;1.55;;;0.90;;
51184;SDS011;37248;59.350;18.050;2023-03-07T04:01:06;1.60;;;0.83;;
51184;SDS011;37248;59.350;18.050;2023-03-07T04:03:32;3.60;;;1.00;;
51184;SDS011;37248;59.350;18.050;2023-03-07T04:06:02;2.22;;;1.00;;
51184;SDS011;37248;59.350;18.050;2023-03-07T04:08:28;1.70;;;0.90;;
51184;SDS011;37248;59.350;18.050;2023-03-07T04:10:54;2.70;;;1.30;;
51184;SDS011;37248;59.350;18.050;2023-03-07T04:13:19;1.60;;;1.10;;
51184;SDS011;37248;59.350;18.050;2023-03-07T04:15:45;3.35;;;0.95;;
51184;SDS011;37248;59.350;18.050;2023-03-07T04:18:10;2.75;;;1.05;;
51184;SDS011;37248;59.350;18.050;2023-03-07T04:20:36;1.37;;;0.80;;
51184;SDS011;37248;59.350;18.050;2023-03-07T04:23:01;3.50;;;0.90;;
51184;SDS011;37248;59.350;18.050;2023-03-07T04:25:27;2.28;;;0.90;;
51184;SDS011;37248;59.350;18.050;2023-03-07T04:27:52;2.07;;;1.03;;
51184;SDS011;37248;59.350;18.050;2023-03-07T04:30:17;1.57;;;0.90;;
51184;SDS011;37248;59.350;18.050;2023-03-07T04:32:42;2.30;;;1.13;;
51184;SDS011;37248;59.350;18.050;2023-03-07T04:35:08;1.80;;;0.90;;
51184;SDS011;37248;59.350;18.050;2023-03-07T04:37:33;1.95;;;0.93;;
51184;SDS011;37248;59.350;18.050;2023-03-07T04:39:58;2.17;;;1.00;;
51184;SDS011;37248;59.350;18.050;2023-03-07T04:42:23;1.40;;;0.80;;
51184;SDS011;37248;59.350;18.050;2023-03-07T04:44:49;2.60;;;0.80;;
51184;SDS011;37248;59.350;18.050;2023-03-07T04:47:14;2.53;;;0.97;;
51184;SDS011;37248;59.350;18.050;2023-03-07T04:49:39;2.03;;;0.80;;
51184;SDS011;37248;59.350;18.050;2023-03-07T04:52:04;2.50;;;0.90;;
51184;SDS011;37248;59.350;18.050;2023-03-07T04:54:30;1.48;;;0.90;;
51184;SDS011;37248;59.350;18.050;2023-03-07T04:56:55;2.30;;;0.80;;
51184;SDS011;37248;59.350;18.050;2023-03-07T04:59:21;3.30;;;0.87;;
51184;SDS011;37248;59.350;18.050;2023-03-07T05:01:46;1.53;;;0.80;;
51184;SDS011;37248;59.350;18.050;2023-03-07T05:04:11;2.40;;;0.80;;
51184;SDS011;37248;59.350;18.050;2023-03-07T05:06:37;1.40;;;0.83;;
51184;SDS011;37248;59.350;18.050;2023-03-07T05:09:02;1.15;;;0.65;;
51184;SDS011;37248;59.350;18.050;2023-03-07T05:11:27;2.70;;;1.00;;
51184;SDS011;37248;59.350;18.050;2023-03-07T05:13:53;2.20;;;0.83;;
51184;SDS011;37248;59.350;18.050;2023-03-07T05:16:18;2.10;;;1.13;;
51184;SDS011;37248;59.350;18.050;2023-03-07T05:18:43;2.10;;;0.80;;
51184;SDS011;37248;59.350;18.050;2023-03-07T05:21:08;1.10;;;0.70;;
51184;SDS011;37248;59.350;18.050;2023-03-07T05:23:34;2.27;;;0.80;;
51184;SDS011;37248;59.350;18.050;2023-03-07T05:25:59;2.37;;;1.00;;
51184;SDS011;37248;59.350;18.050;2023-03-07T05:28:24;4.93;;;0.90;;
51184;SDS011;37248;59.350;18.050;2023-03-07T05:30:49;4.55;;;1.00;;
51184;SDS011;37248;59.350;18.050;2023-03-07T05:33:15;2.20;;;0.80;;
51184;SDS011;37248;59.350;18.050;2023-03-07T05:35:41;3.67;;;1.00;;
51184;SDS011;37248;59.350;18.050;2023-03-07T05:38:06;2.27;;;0.80;;
51184;SDS011;37248;59.350;18.050;2023-03-07T05:40:32;3.20;;;1.05;;
51184;SDS011;37248;59.350;18.050;2023-03-07T05:42:57;2.95;;;0.88;;
51184;SDS011;37248;59.350;18.050;2023-03-07T05:45:22;3.33;;;0.90;;
51184;SDS011;37248;59.350;18.050;2023-03-07T05:47:48;2.93;;;0.80;;
51184;SDS011;37248;59.350;18.050;2023-03-07T05:50:13;2.63;;;0.80;;
51184;SDS011;37248;59.350;18.050;2023-03-07T05:52:38;1.80;;;1.00;;
51184;SDS011;37248;59.350;18.050;2023-03-07T05:55:05;3.23;;;1.13;;
51184;SDS011;37248;59.350;18.050;2023-03-07T05:57:30;1.52;;;0.90;;
51184;SDS011;37248;59.350;18.050;2023-03-07T05:59:55;3.03;;;0.90;;
51184;SDS011;37248;59.350;18.050;2023-03-07T06:02:20;3.33;;;0.97;;
51184;SDS011;37248;59.350;18.050;2023-03-07T06:04:46;4.50;;;0.90;;
51184;SDS011;37248;59.350;18.050;2023-03-07T06:07:11;3.57;;;1.03;;
51184;SDS011;37248;59.350;18.050;2023-03-07T06:09:37;1.73;;;0.80;;
51184;SDS011;37248;59.350;18.050;2023-03-07T06:12:02;2.20;;;0.80;;
51184;SDS011;37248;59.350;18.050;2023-03-07T06:14:29;3.38;;;0.90;;
51184;SDS011;37248;59.350;18.050;2023-03-07T06:16:54;1.92;;;1.00;;
51184;SDS011;37248;59.350;18.050;2023-03-07T06:19:20;4.07;;;1.02;;
51184;SDS011;37248;59.350;18.050;2023-03-07T06:21:46;3.60;;;1.00;;
51184;SDS011;37248;59.350;18.050;2023-03-07T06:24:11;3.20;;;1.07;;
51184;SDS011;37248;59.350;18.050;2023-03-07T06:26:36;2.37;;;0.90;;
51184;SDS011;37248;59.350;18.050;2023-03-07T06:29:01;4.50;;;1.00;;
51184;SDS011;37248;59.350;18.050;2023-03-07T06:31:27;2.97;;;1.00;;
51184;SDS011;37248;59.350;18.050;2023-03-07T06:33:52;3.57;;;1.10;;
51184;SDS011;37248;59.350;18.050;2023-03-07T06:36:18;5.83;;;1.10;;
51184;SDS011;37248;59.350;18.050;2023-03-07T06:38:44;3.25;;;0.90;;
51184;SDS011;37248;59.350;18.050;2023-03-07T06:41:09;5.57;;;1.02;;
51184;SDS011;37248;59.350;18.050;2023-03-07T06:43:35;2.83;;;0.87;;
51184;SDS011;37248;59.350;18.050;2023-03-07T06:46:00;5.90;;;1.00;;
51184;SDS011;37248;59.350;18.050;2023-03-07T06:48:25;5.43;;;1.23;;
51184;SDS011;37248;59.350;18.050;2023-03-07T06:50:51;4.33;;;1.00;;
51184;SDS011;37248;59.350;18.050;2023-03-07T06:53:16;3.70;;;1.20;;
51184;SDS011;37248;59.350;18.050;2023-03-07T06:55:41;7.97;;;1.37;;
51184;SDS011;37248;59.350;18.050;2023-03-07T06:58:07;4.90;;;1.03;;
51184;SDS011;37248;59.350;18.050;2023-03-07T07:00:32;3.83;;;1.10;;
51184;SDS011;37248;59.350;18.050;2023-03-07T07:02:57;3.03;;;1.23;;
51184;SDS011;37248;59.350;18.050;2023-03-07T07:05:23;6.78;;;1.27;;
51184;SDS011;37248;59.350;18.050;2023-03-07T07:07:48;4.37;;;1.20;;
51184;SDS011;37248;59.350;18.050;2023-03-07T07:10:14;8.27;;;1.43;;
51184;SDS011;37248;59.350;18.050;2023-03-07T07:12:39;4.60;;;1.40;;
51184;SDS011;37248;59.350;18.050;2023-03-07T07:15:04;5.10;;;1.60;;
51184;SDS011;37248;59.350;18.050;2023-03-07T07:17:30;9.37;;;1.23;;
51184;SDS011;37248;59.350;18.050;2023-03-07T07:19:55;6.75;;;1.40;;
51184;SDS011;37248;59.350;18.050;2023-03-07T07:22:21;6.57;;;1.43;;
51184;SDS011;37248;59.350;18.050;2023-03-07T07:24:47;8.98;;;1.30;;
51184;SDS011;37248;59.350;18.050;2023-03-07T07:27:12;6.00;;;1.53;;
51184;SDS011;37248;59.350;18.050;2023-03-07T07:29:37;5.70;;;1.60;;
51184;SDS011;37248;59.350;18.050;2023-03-07T07:32:03;5.20;;;1.40;;
51184;SDS011;37248;59.350;18.050;2023-03-07T07:34:28;7.00;;;1.27;;
51184;SDS011;37248;59.350;18.050;2023-03-07T07:36:53;5.33;;;1.30;;
51184;SDS011;37248;59.350;18.050;2023-03-07T07:39:19;10.00;;;1.80;;
51184;SDS011;37248;59.350;18.050;2023-03-07T07:41:45;10.63;;;2.10;;
51184;SDS011;37248;59.350;18.050;2023-03-07T07:44:11;6.72;;;2.20;;
51184;SDS011;37248;59.350;18.050;2023-03-07T07:46:37;10.47;;;3.00;;
51184;SDS011;37248;59.350;18.050;2023-03-07T07:49:02;7.80;;;2.20;;
51184;SDS011;37248;59.350;18.050;2023-03-07T07:51:27;7.60;;;2.47;;
51184;SDS011;37248;59.350;18.050;2023-03-07T07:53:53;15.53;;;2.43;;
51184;SDS011;37248;59.350;18.050;2023-03-07T07:56:18;11.90;;;2.90;;
51184;SDS011;37248;59.350;18.050;2023-03-07T07:58:43;15.83;;;2.50;;
51184;SDS011;37248;59.350;18.050;2023-03-07T08:01:13;6.88;;;2.20;;
51184;SDS011;37248;59.350;18.050;2023-03-07T08:03:38;11.85;;;2.70;;
51184;SDS011;37248;59.350;18.050;2023-03-07T08:06:03;17.13;;;2.97;;
51184;SDS011;37248;59.350;18.050;2023-03-07T08:08:29;10.23;;;2.67;;
51184;SDS011;37248;59.350;18.050;2023-03-07T08:10:54;10.93;;;2.70;;
51184;SDS011;37248;59.350;18.050;2023-03-07T08:13:19;12.10;;;2.73;;
51184;SDS011;37248;59.350;18.050;2023-03-07T08:15:44;13.02;;;2.67;;
51184;SDS011;37248;59.350;18.050;2023-03-07T08:18:10;15.90;;;3.30;;
51184;SDS011;37248;59.350;18.050;2023-03-07T08:20:35;15.60;;;2.95;;
51184;SDS011;37248;59.350;18.050;2023-03-07T08:23:01;14.02;;;2.50;;
51184;SDS011;37248;59.350;18.050;2023-03-07T08:25:26;9.40;;;2.67;;
51184;SDS011;37248;59.350;18.050;2023-03-07T08:27:52;12.63;;;2.90;;
51184;SDS011;37248;59.350;18.050;2023-03-07T08:30:26;7.53;;;2.40;;
51184;SDS011;37248;59.350;18.050;2023-03-07T08:32:52;7.43;;;2.42;;
51184;SDS011;37248;59.350;18.050;2023-03-07T08:35:17;10.80;;;2.28;;
51184;SDS011;37248;59.350;18.050;2023-03-07T08:37:43;8.93;;;2.40;;
51184;SDS011;37248;59.350;18.050;2023-03-07T08:40:08;12.60;;;2.60;;
51184;SDS011;37248;59.350;18.050;2023-03-07T08:42:34;10.90;;;2.57;;
51184;SDS011;37248;59.350;18.050;2023-03-07T08:44:59;9.80;;;2.70;;
51184;SDS011;37248;59.350;18.050;2023-03-07T08:47:24;10.83;;;2.63;;
51184;SDS011;37248;59.350;18.050;2023-03-07T08:49:50;18.40;;;2.47;;
51184;SDS011;37248;59.350;18.050;2023-03-07T08:52:15;17.93;;;2.90;;
51184;SDS011;37248;59.350;18.050;2023-03-07T08:54:40;16.00;;;2.67;;
51184;SDS011;37248;59.350;18.050;2023-03-07T08:57:06;12.37;;;2.30;;
51184;SDS011;37248;59.350;18.050;2023-03-07T08:59:31;15.33;;;3.00;;
51184;SDS011;37248;59.350;18.050;2023-03-07T09:01:56;10.60;;;2.53;;
51184;SDS011;37248;59.350;18.050;2023-03-07T09:04:22;11.07;;;2.47;;
51184;SDS011;37248;59.350;18.050;2023-03-07T09:06:47;34.40;;;4.70;;
51184;SDS011;37248;59.350;18.050;2023-03-07T09:09:12;31.23;;;4.57;;
51184;SDS011;37248;59.350;18.050;2023-03-07T09:11:37;35.40;;;4.20;;
51184;SDS011;37248;59.350;18.050;2023-03-07T09:14:03;32.50;;;5.03;;
51184;SDS011;37248;59.350;18.050;2023-03-07T09:16:28;19.93;;;3.63;;
51184;SDS011;37248;59.350;18.050;2023-03-07T09:18:53;18.60;;;3.30;;
51184;SDS011;37248;59.350;18.050;2023-03-07T09:21:19;18.73;;;4.00;;
51184;SDS011;37248;59.350;18.050;2023-03-07T09:23:44;25.63;;;4.27;;
51184;SDS011;37248;59.350;18.050;2023-03-07T09:26:09;20.43;;;3.70;;
51184;SDS011;37248;59.350;18.050;2023-03-07T09:28:34;35.47;;;4.13;;
51184;SDS011;37248;59.350;18.050;2023-03-07T09:31:05;27.63;;;4.63;;
51184;SDS011;37248;59.350;18.050;2023-03-07T09:33:30;32.72;;;4.00;;
51184;SDS011;37248;59.350;18.050;2023-03-07T09:35:56;26.05;;;3.70;;
51184;SDS011;37248;59.350;18.050;2023-03-07T09:38:21;24.03;;;4.03;;
51184;SDS011;37248;59.350;18.050;2023-03-07T09:40:47;24.87;;;4.90;;
51184;SDS011;37248;59.350;18.050;2023-03-07T09:43:19;33.58;;;4.65;;
51184;SDS011;37248;59.350;18.050;2023-03-07T09:45:50;27.00;;;4.57;;
51184;SDS011;37248;59.350;18.050;2023-03-07T09:51:12;27.00;;;4.43;;
51184;SDS011;37248;59.350;18.050;2023-03-07T09:53:42;28.83;;;4.22;;
51184;SDS011;37248;59.350;18.050;2023-03-07T09:56:13;26.90;;;4.28;;
51184;SDS011;37248;59.350;18.050;2023-03-07T09:58:41;24.50;;;4.47;;
51184;SDS011;37248;59.350;18.050;2023-03-07T10:01:07;21.35;;;3.80;;
51184;SDS011;37248;59.350;18.050;2023-03-07T10:03:38;22.10;;;4.50;;
51184;SDS011;37248;59.350;18.050;2023-03-07T10:06:39;22.77;;;4.05;;
51184;SDS011;37248;59.350;18.050;2023-03-07T10:08:57;21.90;;;3.67;;
51184;SDS011;37248;59.350;18.050;2023-03-07T10:16:22;19.03;;;4.17;;
51184;SDS011;37248;59.350;18.050;2023-03-07T10:18:58;13.52;;;3.03;;
51184;SDS011;37248;59.350;18.050;2023-03-07T10:24:13;12.82;;;3.50;;
51184;SDS011;37248;59.350;18.050;2023-03-07T10:27:04;11.83;;;2.93;;
51184;SDS011;37248;59.350;18.050;2023-03-07T10:29:35;11.88;;;2.67;;
51184;SDS011;37248;59.350;18.050;2023-03-07T10:32:05;10.97;;;3.00;;
51184;SDS011;37248;59.350;18.050;2023-03-07T10:34:36;7.55;;;2.55;;
51184;SDS011;37248;59.350;18.050;2023-03-07T10:37:03;12.63;;;2.80;;
51184;SDS011;37248;59.350;18.050;2023-03-07T10:42:16;7.63;;;2.43;;
51184;SDS011;37248;59.350;18.050;2023-03-07T10:44:43;8.60;;;2.33;;
51184;SDS011;37248;59.350;18.050;2023-03-07T10:47:13;13.82;;;2.75;;
51184;SDS011;37248;59.350;18.050;2023-03-07T10:49:42;15.02;;;2.33;;
51184;SDS011;37248;59.350;18.050;2023-03-07T10:54:49;8.25;;;2.45;;
51184;SDS011;37248;59.350;18.050;2023-03-07T10:57:15;14.43;;;2.83;;
51184;SDS011;37248;59.350;18.050;2023-03-07T10:59:44;11.02;;;2.60;;
51184;SDS011;37248;59.350;18.050;2023-03-07T11:04:52;7.60;;;2.13;;
51184;SDS011;37248;59.350;18.050;2023-03-07T11:09:51;7.60;;;2.30;;
51184;SDS011;37248;59.350;18.050;2023-03-07T11:12:20;10.83;;;2.30;;
51184;SDS011;37248;59.350;18.050;2023-03-07T11:14:47;7.68;;;2.33;;
51184;SDS011;37248;59.350;18.050;2023-03-07T11:19:51;5.07;;;1.90;;
51184;SDS011;37248;59.350;18.050;2023-03-07T11:22:30;7.00;;;2.00;;
51184;SDS011;37248;59.350;18.050;2023-03-07T11:27:36;7.63;;;1.70;;
51184;SDS011;37248;59.350;18.050;2023-03-07T11:30:06;6.03;;;1.97;;
51184;SDS011;37248;59.350;18.050;2023-03-07T11:32:31;4.43;;;1.70;;
51184;SDS011;37248;59.350;18.050;2023-03-07T11:35:14;6.32;;;1.55;;
51184;SDS011;37248;59.350;18.050;2023-03-07T11:37:43;6.85;;;1.80;;
51184;SDS011;37248;59.350;18.050;2023-03-07T11:42:37;7.60;;;1.90;;
51184;SDS011;37248;59.350;18.050;2023-03-07T11:50:25;6.72;;;1.60;;
51184;SDS011;37248;59.350;18.050;2023-03-07T11:53:00;5.50;;;1.52;;
51184;SDS011;37248;59.350;18.050;2023-03-07T12:03:19;7.97;;;1.60;;
51184;SDS011;37248;59.350;18.050;2023-03-07T12:06:08;8.02;;;1.45;;
51184;SDS011;37248;59.350;18.050;2023-03-07T12:11:16;3.57;;;1.20;;
51184;SDS011;37248;59.350;18.050;2023-03-07T12:24:12;4.05;;;1.20;;
51184;SDS011;37248;59.350;18.050;2023-03-07T12:29:14;2.40;;;1.02;;
51184;SDS011;37248;59.350;18.050;2023-03-07T12:31:44;4.93;;;1.30;;
51184;SDS011;37248;59.350;18.050;2023-03-07T12:34:17;4.22;;;1.35;;
51184;SDS011;37248;59.350;18.050;2023-03-07T12:41:43;2.90;;;0.90;;
51184;SDS011;37248;59.350;18.050;2023-03-07T12:50:08;2.55;;;0.90;;
51184;SDS011;37248;59.350;18.050;2023-03-07T12:55:02;2.23;;;0.93;;
51184;SDS011;37248;59.350;18.050;2023-03-07T12:57:29;1.90;;;0.82;;
51184;SDS011;37248;59.350;18.050;2023-03-07T12:59:57;3.08;;;1.00;;
51184;SDS011;37248;59.350;18.050;2023-03-07T13:04:50;3.50;;;0.73;;
51184;SDS011;37248;59.350;18.050;2023-03-07T13:07:31;2.47;;;1.00;;
51184;SDS011;37248;59.350;18.050;2023-03-07T13:09:58;3.08;;;0.88;;
51184;SDS011;37248;59.350;18.050;2023-03-07T13:14:57;5.20;;;0.85;;
51184;SDS011;37248;59.350;18.050;2023-03-07T13:19:54;3.22;;;0.88;;
51184;SDS011;37248;59.350;18.050;2023-03-07T13:24:45;4.37;;;1.00;;
51184;SDS011;37248;59.350;18.050;2023-03-07T13:27:14;4.57;;;1.00;;
51184;SDS011;37248;59.350;18.050;2023-03-07T13:35:08;8.10;;;1.00;;
51184;SDS011;37248;59.350;18.050;2023-03-07T13:37:42;7.22;;;0.90;;
51184;SDS011;37248;59.350;18.050;2023-03-07T13:40:51;5.70;;;1.00;;
51184;SDS011;37248;59.350;18.050;2023-03-07T13:42:56;8.32;;;1.40;;
51184;SDS011;37248;59.350;18.050;2023-03-07T13:48:02;5.63;;;0.95;;
51184;SDS011;37248;59.350;18.050;2023-03-07T13:53:42;9.10;;;1.17;;
51184;SDS011;37248;59.350;18.050;2023-03-07T13:55:48;6.65;;;1.17;;
51184;SDS011;37248;59.350;18.050;2023-03-07T13:58:23;6.40;;;1.17;;
51184;SDS011;37248;59.350;18.050;2023-03-07T14:00:51;15.93;;;1.70;;
51184;SDS011;37248;59.350;18.050;2023-03-07T14:03:25;18.27;;;2.22;;
51184;SDS011;37248;59.350;18.050;2023-03-07T14:05:51;23.25;;;2.13;;
51184;SDS011;37248;59.350;18.050;2023-03-07T14:08:17;18.10;;;1.75;;
51184;SDS011;37248;59.350;18.050;2023-03-07T14:10:44;24.63;;;2.03;;
51184;SDS011;37248;59.350;18.050;2023-03-07T14:26:24;22.10;;;2.28;;
51184;SDS011;37248;59.350;18.050;2023-03-07T14:31:23;22.43;;;2.83;;
51184;SDS011;37248;59.350;18.050;2023-03-07T14:33:52;29.20;;;2.60;;
51184;SDS011;37248;59.350;18.050;2023-03-07T14:36:21;23.42;;;2.42;;
51184;SDS011;37248;59.350;18.050;2023-03-07T14:38:47;23.95;;;2.90;;
51184;SDS011;37248;59.350;18.050;2023-03-07T14:48:58;26.63;;;2.47;;
51184;SDS011;37248;59.350;18.050;2023-03-07T14:51:27;34.97;;;3.17;;
51184;SDS011;37248;59.350;18.050;2023-03-07T14:53:54;25.00;;;2.85;;
51184;SDS011;37248;59.350;18.050;2023-03-07T14:56:27;22.27;;;2.63;;
51184;SDS011;37248;59.350;18.050;2023-03-07T14:58:54;25.20;;;3.07;;
51184;SDS011;37248;59.350;18.050;2023-03-07T15:01:20;23.05;;;2.90;;
51184;SDS011;37248;59.350;18.050;2023-03-07T15:03:46;22.20;;;2.27;;
51184;SDS011;37248;59.350;18.050;2023-03-07T15:06:13;23.33;;;2.47;;
51184;SDS011;37248;59.350;18.050;2023-03-07T15:08:39;17.45;;;1.98;;
51184;SDS011;37248;59.350;18.050;2023-03-07T15:13:56;12.52;;;1.70;;
51184;SDS011;37248;59.350;18.050;2023-03-07T15:16:23;13.30;;;2.40;;
51184;SDS011;37248;59.350;18.050;2023-03-07T15:18:54;15.98;;;1.80;;
51184;SDS011;37248;59.350;18.050;2023-03-07T15:21:22;12.60;;;2.03;;
51184;SDS011;37248;59.350;18.050;2023-03-07T15:23:52;17.63;;;1.90;;
51184;SDS011;37248;59.350;18.050;2023-03-07T15:26:18;12.90;;;1.63;;
51184;SDS011;37248;59.350;18.050;2023-03-07T15:28:45;12.45;;;1.83;;
51184;SDS011;37248;59.350;18.050;2023-03-07T15:31:11;13.63;;;1.67;;
51184;SDS011;37248;59.350;18.050;2023-03-07T15:33:37;8.43;;;1.23;;
51184;SDS011;37248;59.350;18.050;2023-03-07T15:38:31;8.63;;;1.50;;
51184;SDS011;37248;59.350;18.050;2023-03-07T15:40:57;12.03;;;1.47;;
51184;SDS011;37248;59.350;18.050;2023-03-07T15:46:02;5.63;;;1.30;;
51184;SDS011;37248;59.350;18.050;2023-03-07T15:48:36;11.77;;;1.50;;
51184;SDS011;37248;59.350;18.050;2023-03-07T15:51:03;5.00;;;0.80;;
51184;SDS011;37248;59.350;18.050;2023-03-07T15:53:34;4.50;;;1.00;;
51184;SDS011;37248;59.350;18.050;2023-03-07T15:56:00;8.77;;;1.10;;
51184;SDS011;37248;59.350;18.050;2023-03-07T15:58:26;7.93;;;1.00;;
51184;SDS011;37248;59.350;18.050;2023-03-07T16:01:06;9.00;;;1.60;;
51184;SDS011;37248;59.350;18.050;2023-03-07T16:03:31;7.35;;;0.95;;
51184;SDS011;37248;59.350;18.050;2023-03-07T16:05:58;5.77;;;0.90;;
51184;SDS011;37248;59.350;18.050;2023-03-07T16:08:24;6.10;;;1.02;;
51184;SDS011;37248;59.350;18.050;2023-03-07T16:13:25;7.00;;;1.20;;
51184;SDS011;37248;59.350;18.050;2023-03-07T16:16:26;7.10;;;1.15;;
51184;SDS011;37248;59.350;18.050;2023-03-07T16:18:43;3.63;;;0.73;;
51184;SDS011;37248;59.350;18.050;2023-03-07T16:21:12;8.10;;;1.03;;
51184;SDS011;37248;59.350;18.050;2023-03-07T16:23:38;8.52;;;1.23;;
51184;SDS011;37248;59.350;18.050;2023-03-07T16:26:04;5.47;;;0.90;;
51184;SDS011;37248;59.350;18.050;2023-03-07T16:28:30;7.75;;;1.05;;
51184;SDS011;37248;59.350;18.050;2023-03-07T16:30:55;11.83;;;1.50;;
51184;SDS011;37248;59.350;18.050;2023-03-07T16:33:20;15.20;;;1.27;;
51184;SDS011;37248;59.350;18.050;2023-03-07T16:35:46;13.33;;;2.13;;
51184;SDS011;37248;59.350;18.050;2023-03-07T16:38:11;25.30;;;2.67;;
51184;SDS011;37248;59.350;18.050;2023-03-07T16:40:41;36.47;;;2.80;;
51184;SDS011;37248;59.350;18.050;2023-03-07T16:43:21;31.53;;;2.23;;